Port Graham, Alaska
Current Conditions -  °F | °C
As of 5:53 AM on Friday 28 Nov 2014 (Local Time) from PAHO Reporting Station
Overcast Overcast  
Wind Chill: 34°   Ceiling: 4300
Heat Index: 34°   Visibility: 10mi
Dew Point: 27°   Wind: 0mph
Humidity: 75%   Direction: NA
Pressure: 30.15"   Gusts: NA
Location:  59.7153°N, 150.773°W
Report Text: PAHO 281453Z AUTO 00000KT 10SM OVC043 01/M03 A3015 RMK AO2 SLP209 60000 T00111028 51001 TSNO
Loading
Personal Weather Stations






























Interactive Weather Map New forecast layout! Learn more

10-Day Weather Forecast

Advertisements
Track Severe Weather on mobile